createdAt,value
2023-02-05T00:01:18.896Z,-1.5
2023-02-05T00:06:24.933Z,-1.5
2023-02-05T00:11:31.102Z,-1.4
2023-02-05T00:16:37.138Z,-1.2
2023-02-05T00:21:43.287Z,-1
2023-02-05T00:26:49.363Z,-0.9
2023-02-05T00:31:55.469Z,-0.8
2023-02-05T00:37:01.597Z,-0.6
2023-02-05T00:42:06.638Z,-0.6
2023-02-05T00:47:12.748Z,-0.7
2023-02-05T00:52:18.846Z,-0.7
2023-02-05T00:57:24.961Z,-0.7
2023-02-05T01:02:31.043Z,-0.8
2023-02-05T01:07:37.164Z,-0.8
2023-02-05T01:12:43.275Z,-0.8
2023-02-05T01:17:49.361Z,-0.8
2023-02-05T01:22:55.438Z,-0.7
2023-02-05T01:28:01.549Z,-0.7
2023-02-05T01:33:07.649Z,-0.8
2023-02-05T01:38:13.755Z,-0.9
2023-02-05T01:43:19.842Z,-1
2023-02-05T01:48:25.183Z,-1.1
2023-02-05T01:53:31.064Z,-1.2
2023-02-05T01:58:37.170Z,-1.3
2023-02-05T02:03:43.260Z,-1.5
2023-02-05T02:08:49.344Z,-1.6
2023-02-05T02:13:55.447Z,-1.6
2023-02-05T02:19:01.549Z,-1.9
2023-02-05T02:24:07.652Z,-2
2023-02-05T02:29:13.741Z,-2.1
2023-02-05T02:34:19.833Z,-1.8
2023-02-05T02:39:25.948Z,-1.8
2023-02-05T02:44:32.032Z,-1.8
2023-02-05T02:49:38.148Z,-1.9
2023-02-05T02:54:43.272Z,-1.9
2023-02-05T03:04:55.443Z,-2
2023-02-05T03:10:01.556Z,-2
2023-02-05T03:15:07.646Z,-2
2023-02-05T03:20:13.774Z,-2.1
2023-02-05T03:25:19.858Z,-2.1
2023-02-05T03:30:26.013Z,-2.3
2023-02-05T03:35:32.026Z,-2.3
2023-02-05T03:40:38.169Z,-2.4
2023-02-05T03:45:44.223Z,-2.2
2023-02-05T03:50:50.324Z,-2.1
2023-02-05T03:55:56.431Z,-2.3
2023-02-05T04:01:01.534Z,-2.3
2023-02-05T04:06:07.620Z,-2.3
2023-02-05T04:11:13.767Z,-2.4
2023-02-05T04:16:19.827Z,-2.4
2023-02-05T04:21:25.920Z,-2.3
2023-02-05T04:26:32.154Z,-2.4
2023-02-05T04:31:38.147Z,-2.4
2023-02-05T04:36:44.212Z,-2.5
2023-02-05T04:41:50.312Z,-2.5
2023-02-05T04:46:56.396Z,-2.5
2023-02-05T04:52:02.492Z,-2.4
2023-02-05T04:57:08.588Z,-2.3
2023-02-05T05:02:14.700Z,-2.2
2023-02-05T05:07:19.808Z,-2.1
2023-02-05T05:12:25.910Z,-2.1
2023-02-05T05:17:32.001Z,-2
2023-02-05T05:22:38.088Z,-1.9
2023-02-05T05:27:44.207Z,-1.8
2023-02-05T05:32:50.296Z,-1.8
2023-02-05T05:37:56.445Z,-1.8
2023-02-05T05:43:02.502Z,-1.9
2023-02-05T05:48:08.666Z,-1.9
2023-02-05T05:53:14.686Z,-1.9
2023-02-05T05:58:20.784Z,-1.9
2023-02-05T06:03:26.891Z,-1.9
2023-02-05T06:08:32.997Z,-1.9
2023-02-05T06:13:38.102Z,-2
2023-02-05T06:18:44.270Z,-2.1
2023-02-05T06:23:50.296Z,-2.1
2023-02-05T06:28:56.384Z,-2.1
2023-02-05T06:34:02.535Z,-2
2023-02-05T06:39:08.593Z,-2.1
2023-02-05T06:44:14.692Z,-2.2
2023-02-05T06:49:20.776Z,-2.1
2023-02-05T06:54:26.884Z,-2
2023-02-05T06:59:32.977Z,-1.8
2023-02-05T07:04:39.077Z,-1.7
2023-02-05T07:09:45.174Z,-1.7
2023-02-05T07:14:51.269Z,-1.6
2023-02-05T07:19:57.370Z,-1.5
2023-02-05T07:30:08.677Z,-1.3
2023-02-05T07:35:14.744Z,-1.2
2023-02-05T07:40:20.780Z,-1.1
2023-02-05T07:45:25.906Z,-1
2023-02-05T07:50:32.010Z,-0.8
2023-02-05T07:55:38.111Z,-0.6
2023-02-05T08:00:44.196Z,-0.4
2023-02-05T08:05:50.297Z,-0.4
2023-02-05T08:10:56.404Z,-0.2
2023-02-05T08:16:02.555Z,0
2023-02-05T08:21:08.593Z,0
2023-02-05T08:26:14.697Z,0
2023-02-05T08:31:20.845Z,0.1
2023-02-05T08:36:26.911Z,0.1
2023-02-05T08:41:33.033Z,0.1
2023-02-05T08:46:39.098Z,0.2
2023-02-05T08:51:45.216Z,0.2
2023-02-05T08:56:50.314Z,0.2
2023-02-05T09:01:56.820Z,0.4
2023-02-05T09:07:02.517Z,0.6
2023-02-05T09:12:08.626Z,0.9
2023-02-05T09:17:14.737Z,1.2
2023-02-05T09:22:20.808Z,1.4
2023-02-05T09:27:26.993Z,1.4
2023-02-05T09:32:33.014Z,1.5
2023-02-05T09:37:39.149Z,1.4
2023-02-05T09:42:45.196Z,1.5
2023-02-05T09:47:51.298Z,1.6
2023-02-05T09:52:57.491Z,1.7
2023-02-05T09:58:03.496Z,1.4
2023-02-05T10:03:08.600Z,1.6
2023-02-05T10:08:14.700Z,1.8
2023-02-05T10:13:20.804Z,2.1
2023-02-05T10:18:26.885Z,1.9
2023-02-05T10:23:32.977Z,2.1
2023-02-05T10:28:39.102Z,2
2023-02-05T10:33:45.375Z,1.9
2023-02-05T10:38:51.396Z,2
2023-02-05T10:43:57.471Z,2.2
2023-02-05T10:49:03.605Z,2.2
2023-02-05T10:54:09.783Z,2.4
2023-02-05T10:59:15.831Z,2.4
2023-02-05T11:04:21.919Z,2.2
2023-02-05T11:09:26.893Z,2.3
2023-02-05T11:14:33.222Z,2.3
2023-02-05T11:19:39.258Z,2.4
2023-02-05T11:24:45.380Z,2.5
2023-02-05T11:29:51.264Z,2.5
2023-02-05T11:34:57.451Z,2.6
2023-02-05T11:40:03.477Z,2.7
2023-02-05T11:45:09.576Z,2.7
2023-02-05T11:50:15.659Z,2.9
2023-02-05T11:55:21.771Z,3.1
2023-02-05T12:00:27.858Z,3.2
2023-02-05T12:05:33.973Z,3.3
2023-02-05T12:10:40.074Z,3.3
2023-02-05T12:15:45.216Z,3.4
2023-02-05T12:20:51.282Z,3.3
2023-02-05T12:25:57.403Z,3.2
2023-02-05T12:31:03.483Z,3.4
2023-02-05T12:36:09.574Z,3.4
2023-02-05T12:41:15.669Z,3.4
2023-02-05T12:46:21.772Z,3.7
2023-02-05T12:51:27.856Z,3.8
2023-02-05T12:56:33.960Z,3.8
2023-02-05T13:01:40.047Z,3.7
2023-02-05T13:06:46.151Z,3.7
2023-02-05T13:11:53.519Z,4.1
2023-02-05T13:16:58.554Z,4.4
2023-02-05T13:22:03.456Z,4.3
2023-02-05T13:27:09.561Z,4.3
2023-02-05T13:32:15.662Z,4.2
2023-02-05T13:37:21.749Z,4
2023-02-05T13:42:27.897Z,4.1
2023-02-05T13:47:33.991Z,4.4
2023-02-05T13:52:40.114Z,4.3
2023-02-05T13:57:46.174Z,4.2
2023-02-05T14:02:52.255Z,4.1
2023-02-05T14:07:58.382Z,4.1
2023-02-05T14:13:04.478Z,3.9
2023-02-05T14:18:10.559Z,3.9
2023-02-05T14:23:16.682Z,3.7
2023-02-05T14:28:21.780Z,3.6
2023-02-05T14:33:27.871Z,3.5
2023-02-05T14:38:33.982Z,3.5
2023-02-05T14:43:40.080Z,3.7
2023-02-05T14:48:46.170Z,3.8
2023-02-05T14:53:52.269Z,3.9
2023-02-05T14:58:58.360Z,4.7
2023-02-05T15:04:04.465Z,5.3
2023-02-05T15:09:10.547Z,6
2023-02-05T15:14:16.647Z,6.3
2023-02-05T15:19:23.136Z,5.2
2023-02-05T15:24:28.842Z,3.8
2023-02-05T15:29:34.951Z,3
2023-02-05T15:34:40.067Z,2.4
2023-02-05T15:39:46.156Z,2
2023-02-05T15:44:52.252Z,1.8
2023-02-05T15:49:58.362Z,1.6
2023-02-05T15:55:04.566Z,1.2
2023-02-05T16:00:10.554Z,1
2023-02-05T16:05:16.659Z,0.8
2023-02-05T16:10:22.747Z,0.6
2023-02-05T16:15:28.861Z,0.5
2023-02-05T16:20:34.953Z,0.3
2023-02-05T16:25:41.050Z,0.1
2023-02-05T16:30:47.135Z,-0.1
2023-02-05T16:35:53.464Z,-0.1
2023-02-05T16:40:58.358Z,-0.1
2023-02-05T16:46:04.442Z,-0.1
2023-02-05T16:51:10.549Z,-0.2
2023-02-05T16:56:16.657Z,-0.3
2023-02-05T17:01:22.792Z,-0.2
2023-02-05T17:06:28.842Z,-0.2
2023-02-05T17:11:34.952Z,-0.1
2023-02-05T17:16:41.059Z,-0.2
2023-02-05T17:21:47.154Z,-0.2
2023-02-05T17:26:53.253Z,-0.3
2023-02-05T17:31:59.344Z,-0.3
2023-02-05T17:37:05.453Z,-0.4
2023-02-05T17:42:11.569Z,-0.4
2023-02-05T17:47:16.653Z,-0.6
2023-02-05T17:52:22.770Z,-0.7
2023-02-05T17:57:28.861Z,-0.9
2023-02-05T18:02:34.942Z,-1.3
2023-02-05T18:07:41.069Z,-1.4
2023-02-05T18:12:47.145Z,-1.5
2023-02-05T18:17:53.276Z,-1.7
2023-02-05T18:22:59.392Z,-1.8
2023-02-05T18:28:05.451Z,-1.8
2023-02-05T18:33:11.546Z,-2
2023-02-05T18:38:17.665Z,-2
2023-02-05T18:43:23.754Z,-2
2023-02-05T18:48:29.855Z,-2.1
2023-02-05T18:53:34.962Z,-1.9
2023-02-05T18:58:41.071Z,-1.7
2023-02-05T19:03:47.165Z,-1.8
2023-02-05T19:08:53.310Z,-2
2023-02-05T19:13:59.363Z,-2.2
2023-02-05T19:19:05.445Z,-2.2
2023-02-05T19:24:11.539Z,-2.4
2023-02-05T19:29:17.658Z,-2.4
2023-02-05T19:34:23.749Z,-2.5
2023-02-05T19:39:29.856Z,-2.7
2023-02-05T19:44:35.948Z,-2.8
2023-02-05T19:49:42.054Z,-2.8
2023-02-05T19:54:48.156Z,-2.8
2023-02-05T19:59:53.294Z,-2.5
2023-02-05T20:04:59.361Z,-2.5
2023-02-05T20:10:05.464Z,-2.6
2023-02-05T20:15:11.549Z,-2.7
2023-02-05T20:20:17.643Z,-2.9
2023-02-05T20:25:23.739Z,-3.1
2023-02-05T20:30:29.839Z,-3.2
2023-02-05T20:35:35.944Z,-3.4
2023-02-05T20:40:42.027Z,-3.4
2023-02-05T20:50:54.227Z,-3.5
2023-02-05T20:56:00.309Z,-3.5
2023-02-05T21:01:06.426Z,-3.6
2023-02-05T21:06:11.528Z,-3.6
2023-02-05T21:11:17.627Z,-3.5
2023-02-05T21:16:23.833Z,-3.6
2023-02-05T21:21:29.817Z,-3.7
2023-02-05T21:26:35.929Z,-3.8
2023-02-05T21:31:42.020Z,-4
2023-02-05T21:36:48.123Z,-3.8
2023-02-05T21:41:54.212Z,-3.6
2023-02-05T21:47:00.315Z,-3.6
2023-02-05T21:52:06.435Z,-3.7
2023-02-05T21:57:12.569Z,-3.7
2023-02-05T22:02:18.630Z,-3.7
2023-02-05T22:07:24.752Z,-3.8
2023-02-05T22:12:29.831Z,-3.9
2023-02-05T22:17:35.924Z,-3.9
2023-02-05T22:22:42.016Z,-4
2023-02-05T22:27:48.124Z,-3.9
2023-02-05T22:32:54.225Z,-3.9
2023-02-05T22:38:00.343Z,-4
2023-02-05T22:43:06.588Z,-4.1
2023-02-05T22:48:12.538Z,-4
2023-02-05T22:53:18.632Z,-4
2023-02-05T22:58:24.745Z,-3.9
2023-02-05T23:03:30.831Z,-3.9
2023-02-05T23:08:36.943Z,-4
2023-02-05T23:13:43.087Z,-4
2023-02-05T23:18:49.146Z,-3.9
2023-02-05T23:23:54.265Z,-3.9
2023-02-05T23:29:00.343Z,-4
2023-02-05T23:34:06.519Z,-4.1
2023-02-05T23:39:12.564Z,-4.2
2023-02-05T23:44:18.674Z,-4.3
2023-02-05T23:49:24.769Z,-4.4
2023-02-05T23:54:30.864Z,-4.5
2023-02-05T23:59:36.969Z,-4.6
